sensor_id;sensor_type;location;lat;lon;timestamp;P1;durP1;ratioP1;P2;durP2;ratioP2
15635;SDS011;7917;50.818;6.972;2022-07-04T00:00:24;4.68;;;1.30;;
15635;SDS011;7917;50.818;6.972;2022-07-04T00:02:52;2.95;;;1.45;;
15635;SDS011;7917;50.818;6.972;2022-07-04T00:05:20;3.13;;;1.65;;
15635;SDS011;7917;50.818;6.972;2022-07-04T00:07:48;2.83;;;1.60;;
15635;SDS011;7917;50.818;6.972;2022-07-04T00:10:16;2.17;;;1.50;;
15635;SDS011;7917;50.818;6.972;2022-07-04T00:12:45;3.50;;;1.88;;
15635;SDS011;7917;50.818;6.972;2022-07-04T00:15:13;4.53;;;1.92;;
15635;SDS011;7917;50.818;6.972;2022-07-04T00:17:41;4.28;;;1.90;;
15635;SDS011;7917;50.818;6.972;2022-07-04T00:20:09;2.80;;;1.92;;
15635;SDS011;7917;50.818;6.972;2022-07-04T00:22:39;5.28;;;2.20;;
15635;SDS011;7917;50.818;6.972;2022-07-04T00:25:06;4.93;;;2.20;;
15635;SDS011;7917;50.818;6.972;2022-07-04T00:27:34;4.22;;;2.10;;
15635;SDS011;7917;50.818;6.972;2022-07-04T00:30:02;4.82;;;2.72;;
15635;SDS011;7917;50.818;6.972;2022-07-04T00:32:31;7.22;;;2.35;;
15635;SDS011;7917;50.818;6.972;2022-07-04T00:34:58;5.35;;;2.45;;
15635;SDS011;7917;50.818;6.972;2022-07-04T00:37:26;2.78;;;2.08;;
15635;SDS011;7917;50.818;6.972;2022-07-04T00:39:55;6.07;;;2.50;;
15635;SDS011;7917;50.818;6.972;2022-07-04T00:42:22;3.20;;;2.40;;
15635;SDS011;7917;50.818;6.972;2022-07-04T00:44:49;3.20;;;2.65;;
15635;SDS011;7917;50.818;6.972;2022-07-04T00:47:17;5.60;;;2.45;;
15635;SDS011;7917;50.818;6.972;2022-07-04T00:49:44;2.85;;;2.25;;
15635;SDS011;7917;50.818;6.972;2022-07-04T00:52:12;3.17;;;2.08;;
15635;SDS011;7917;50.818;6.972;2022-07-04T00:54:40;7.35;;;2.53;;
15635;SDS011;7917;50.818;6.972;2022-07-04T00:57:09;3.97;;;2.50;;
15635;SDS011;7917;50.818;6.972;2022-07-04T00:59:37;3.85;;;2.47;;
15635;SDS011;7917;50.818;6.972;2022-07-04T01:02:04;10.13;;;2.67;;
15635;SDS011;7917;50.818;6.972;2022-07-04T01:04:33;5.03;;;2.30;;
15635;SDS011;7917;50.818;6.972;2022-07-04T01:07:01;4.03;;;2.72;;
15635;SDS011;7917;50.818;6.972;2022-07-04T01:09:29;6.72;;;3.22;;
15635;SDS011;7917;50.818;6.972;2022-07-04T01:11:57;4.70;;;2.47;;
15635;SDS011;7917;50.818;6.972;2022-07-04T01:14:25;3.38;;;2.35;;
15635;SDS011;7917;50.818;6.972;2022-07-04T01:16:53;6.35;;;2.63;;
15635;SDS011;7917;50.818;6.972;2022-07-04T01:19:20;3.42;;;2.35;;
15635;SDS011;7917;50.818;6.972;2022-07-04T01:21:50;5.13;;;2.25;;
15635;SDS011;7917;50.818;6.972;2022-07-04T01:24:17;3.55;;;2.70;;
15635;SDS011;7917;50.818;6.972;2022-07-04T01:26:45;3.55;;;2.30;;
15635;SDS011;7917;50.818;6.972;2022-07-04T01:29:12;6.47;;;2.40;;
15635;SDS011;7917;50.818;6.972;2022-07-04T01:31:39;3.03;;;2.40;;
15635;SDS011;7917;50.818;6.972;2022-07-04T01:34:07;5.05;;;2.50;;
15635;SDS011;7917;50.818;6.972;2022-07-04T01:36:34;3.33;;;2.25;;
15635;SDS011;7917;50.818;6.972;2022-07-04T01:39:03;5.75;;;2.78;;
15635;SDS011;7917;50.818;6.972;2022-07-04T01:41:32;3.85;;;2.45;;
15635;SDS011;7917;50.818;6.972;2022-07-04T01:44:00;3.42;;;2.50;;
15635;SDS011;7917;50.818;6.972;2022-07-04T01:46:27;3.42;;;2.78;;
15635;SDS011;7917;50.818;6.972;2022-07-04T01:48:55;2.50;;;2.30;;
15635;SDS011;7917;50.818;6.972;2022-07-04T01:51:22;5.20;;;2.55;;
15635;SDS011;7917;50.818;6.972;2022-07-04T01:53:50;3.45;;;2.55;;
15635;SDS011;7917;50.818;6.972;2022-07-04T01:56:18;4.43;;;2.47;;
15635;SDS011;7917;50.818;6.972;2022-07-04T01:58:46;4.20;;;2.72;;
15635;SDS011;7917;50.818;6.972;2022-07-04T02:01:13;3.85;;;2.47;;
15635;SDS011;7917;50.818;6.972;2022-07-04T02:03:55;3.83;;;2.47;;
15635;SDS011;7917;50.818;6.972;2022-07-04T02:06:23;4.05;;;2.25;;
15635;SDS011;7917;50.818;6.972;2022-07-04T02:08:50;3.03;;;2.55;;
15635;SDS011;7917;50.818;6.972;2022-07-04T02:11:37;6.47;;;3.00;;
15635;SDS011;7917;50.818;6.972;2022-07-04T02:14:22;3.45;;;2.40;;
15635;SDS011;7917;50.818;6.972;2022-07-04T02:16:49;4.00;;;2.35;;
15635;SDS011;7917;50.818;6.972;2022-07-04T02:19:17;4.00;;;2.63;;
15635;SDS011;7917;50.818;6.972;2022-07-04T02:21:45;2.88;;;2.60;;
15635;SDS011;7917;50.818;6.972;2022-07-04T02:24:13;9.00;;;2.95;;
15635;SDS011;7917;50.818;6.972;2022-07-04T02:26:42;4.95;;;2.60;;
15635;SDS011;7917;50.818;6.972;2022-07-04T02:29:10;4.90;;;2.55;;
15635;SDS011;7917;50.818;6.972;2022-07-04T02:31:37;5.65;;;2.80;;
15635;SDS011;7917;50.818;6.972;2022-07-04T02:34:04;7.05;;;3.38;;
15635;SDS011;7917;50.818;6.972;2022-07-04T02:36:32;4.55;;;2.67;;
15635;SDS011;7917;50.818;6.972;2022-07-04T02:38:59;6.82;;;3.20;;
15635;SDS011;7917;50.818;6.972;2022-07-04T02:41:28;3.42;;;2.78;;
15635;SDS011;7917;50.818;6.972;2022-07-04T02:43:58;3.05;;;2.50;;
15635;SDS011;7917;50.818;6.972;2022-07-04T02:46:26;7.55;;;2.50;;
15635;SDS011;7917;50.818;6.972;2022-07-04T02:48:54;4.22;;;2.67;;
15635;SDS011;7917;50.818;6.972;2022-07-04T02:51:22;3.17;;;2.58;;
15635;SDS011;7917;50.818;6.972;2022-07-04T02:53:50;5.65;;;2.78;;
15635;SDS011;7917;50.818;6.972;2022-07-04T02:56:18;3.92;;;2.72;;
15635;SDS011;7917;50.818;6.972;2022-07-04T02:58:45;13.85;;;3.88;;
15635;SDS011;7917;50.818;6.972;2022-07-04T03:01:16;4.43;;;2.88;;
15635;SDS011;7917;50.818;6.972;2022-07-04T03:03:46;5.07;;;2.92;;
15635;SDS011;7917;50.818;6.972;2022-07-04T03:06:14;7.55;;;2.90;;
15635;SDS011;7917;50.818;6.972;2022-07-04T03:08:42;5.78;;;2.90;;
15635;SDS011;7917;50.818;6.972;2022-07-04T03:11:10;5.00;;;2.55;;
15635;SDS011;7917;50.818;6.972;2022-07-04T03:13:40;3.72;;;2.65;;
15635;SDS011;7917;50.818;6.972;2022-07-04T03:16:09;6.05;;;2.75;;
15635;SDS011;7917;50.818;6.972;2022-07-04T03:18:41;4.57;;;2.60;;
15635;SDS011;7917;50.818;6.972;2022-07-04T03:21:09;3.78;;;2.58;;
15635;SDS011;7917;50.818;6.972;2022-07-04T03:23:40;7.40;;;2.63;;
15635;SDS011;7917;50.818;6.972;2022-07-04T03:26:22;6.13;;;2.90;;
15635;SDS011;7917;50.818;6.972;2022-07-04T03:28:50;7.22;;;3.28;;
15635;SDS011;7917;50.818;6.972;2022-07-04T03:31:18;5.38;;;2.90;;
15635;SDS011;7917;50.818;6.972;2022-07-04T03:33:47;3.40;;;3.10;;
15635;SDS011;7917;50.818;6.972;2022-07-04T03:36:15;5.18;;;3.33;;
15635;SDS011;7917;50.818;6.972;2022-07-04T03:38:42;5.63;;;3.17;;
15635;SDS011;7917;50.818;6.972;2022-07-04T03:41:10;3.40;;;2.95;;
15635;SDS011;7917;50.818;6.972;2022-07-04T03:43:37;3.35;;;2.70;;
15635;SDS011;7917;50.818;6.972;2022-07-04T03:46:04;4.25;;;3.03;;
15635;SDS011;7917;50.818;6.972;2022-07-04T03:48:32;6.90;;;2.92;;
15635;SDS011;7917;50.818;6.972;2022-07-04T03:51:02;3.92;;;3.00;;
15635;SDS011;7917;50.818;6.972;2022-07-04T03:53:30;5.80;;;3.22;;
15635;SDS011;7917;50.818;6.972;2022-07-04T03:55:59;3.58;;;3.20;;
15635;SDS011;7917;50.818;6.972;2022-07-04T03:58:27;7.20;;;3.95;;
15635;SDS011;7917;50.818;6.972;2022-07-04T04:00:55;5.05;;;3.40;;
15635;SDS011;7917;50.818;6.972;2022-07-04T04:03:23;4.85;;;3.30;;
15635;SDS011;7917;50.818;6.972;2022-07-04T04:06:10;4.57;;;3.65;;
15635;SDS011;7917;50.818;6.972;2022-07-04T04:08:37;4.88;;;3.67;;
15635;SDS011;7917;50.818;6.972;2022-07-04T04:11:04;4.07;;;3.50;;
15635;SDS011;7917;50.818;6.972;2022-07-04T04:13:32;6.13;;;3.47;;
15635;SDS011;7917;50.818;6.972;2022-07-04T04:15:59;8.82;;;3.50;;
15635;SDS011;7917;50.818;6.972;2022-07-04T04:18:27;4.35;;;3.15;;
15635;SDS011;7917;50.818;6.972;2022-07-04T04:20:55;5.47;;;3.20;;
15635;SDS011;7917;50.818;6.972;2022-07-04T04:23:23;4.78;;;2.95;;
15635;SDS011;7917;50.818;6.972;2022-07-04T04:25:51;4.95;;;3.13;;
15635;SDS011;7917;50.818;6.972;2022-07-04T04:28:18;5.75;;;3.70;;
15635;SDS011;7917;50.818;6.972;2022-07-04T04:30:46;3.42;;;2.90;;
15635;SDS011;7917;50.818;6.972;2022-07-04T04:33:13;6.30;;;3.10;;
15635;SDS011;7917;50.818;6.972;2022-07-04T04:35:41;4.35;;;3.10;;
15635;SDS011;7917;50.818;6.972;2022-07-04T04:38:08;8.38;;;3.78;;
15635;SDS011;7917;50.818;6.972;2022-07-04T04:40:37;4.55;;;2.80;;
15635;SDS011;7917;50.818;6.972;2022-07-04T04:43:04;3.70;;;2.63;;
15635;SDS011;7917;50.818;6.972;2022-07-04T04:45:32;4.32;;;3.38;;
15635;SDS011;7917;50.818;6.972;2022-07-04T04:48:00;5.53;;;2.97;;
15635;SDS011;7917;50.818;6.972;2022-07-04T04:50:27;4.60;;;2.67;;
15635;SDS011;7917;50.818;6.972;2022-07-04T04:52:54;4.78;;;2.85;;
15635;SDS011;7917;50.818;6.972;2022-07-04T04:55:22;5.05;;;2.70;;
15635;SDS011;7917;50.818;6.972;2022-07-04T04:57:51;4.07;;;2.72;;
15635;SDS011;7917;50.818;6.972;2022-07-04T05:00:19;5.28;;;2.80;;
15635;SDS011;7917;50.818;6.972;2022-07-04T05:02:46;5.55;;;2.75;;
15635;SDS011;7917;50.818;6.972;2022-07-04T05:05:14;7.32;;;2.70;;
15635;SDS011;7917;50.818;6.972;2022-07-04T05:07:41;3.13;;;2.70;;
15635;SDS011;7917;50.818;6.972;2022-07-04T05:10:09;4.20;;;2.47;;
15635;SDS011;7917;50.818;6.972;2022-07-04T05:12:37;4.75;;;2.33;;
15635;SDS011;7917;50.818;6.972;2022-07-04T05:15:06;8.63;;;2.17;;
15635;SDS011;7917;50.818;6.972;2022-07-04T05:17:34;5.22;;;2.40;;
15635;SDS011;7917;50.818;6.972;2022-07-04T05:20:02;3.03;;;2.15;;
15635;SDS011;7917;50.818;6.972;2022-07-04T05:22:32;4.40;;;2.28;;
15635;SDS011;7917;50.818;6.972;2022-07-04T05:25:00;6.65;;;2.70;;
15635;SDS011;7917;50.818;6.972;2022-07-04T05:27:27;4.57;;;2.10;;
15635;SDS011;7917;50.818;6.972;2022-07-04T05:29:56;3.05;;;2.40;;
15635;SDS011;7917;50.818;6.972;2022-07-04T05:32:26;4.75;;;2.40;;
15635;SDS011;7917;50.818;6.972;2022-07-04T05:34:53;3.67;;;2.20;;
15635;SDS011;7917;50.818;6.972;2022-07-04T05:37:21;4.90;;;2.08;;
15635;SDS011;7917;50.818;6.972;2022-07-04T05:39:49;2.95;;;2.17;;
15635;SDS011;7917;50.818;6.972;2022-07-04T05:42:19;4.50;;;2.30;;
15635;SDS011;7917;50.818;6.972;2022-07-04T05:44:49;2.75;;;2.45;;
15635;SDS011;7917;50.818;6.972;2022-07-04T05:47:17;4.55;;;1.77;;
15635;SDS011;7917;50.818;6.972;2022-07-04T05:49:47;3.72;;;2.10;;
15635;SDS011;7917;50.818;6.972;2022-07-04T05:52:16;9.80;;;2.50;;
15635;SDS011;7917;50.818;6.972;2022-07-04T05:54:44;3.35;;;1.80;;
15635;SDS011;7917;50.818;6.972;2022-07-04T05:57:11;3.92;;;1.65;;
15635;SDS011;7917;50.818;6.972;2022-07-04T05:59:39;3.60;;;2.20;;
15635;SDS011;7917;50.818;6.972;2022-07-04T06:02:06;2.78;;;2.10;;
15635;SDS011;7917;50.818;6.972;2022-07-04T06:04:34;5.93;;;2.20;;
15635;SDS011;7917;50.818;6.972;2022-07-04T06:07:03;4.43;;;1.98;;
15635;SDS011;7917;50.818;6.972;2022-07-04T06:09:31;5.22;;;1.90;;
15635;SDS011;7917;50.818;6.972;2022-07-04T06:11:58;4.40;;;1.90;;
15635;SDS011;7917;50.818;6.972;2022-07-04T06:14:25;3.05;;;1.63;;
15635;SDS011;7917;50.818;6.972;2022-07-04T06:16:53;3.28;;;1.77;;
15635;SDS011;7917;50.818;6.972;2022-07-04T06:19:20;4.35;;;1.90;;
15635;SDS011;7917;50.818;6.972;2022-07-04T06:21:48;2.85;;;1.73;;
15635;SDS011;7917;50.818;6.972;2022-07-04T06:24:17;2.00;;;1.80;;
15635;SDS011;7917;50.818;6.972;2022-07-04T06:26:44;4.20;;;1.92;;
15635;SDS011;7917;50.818;6.972;2022-07-04T06:29:12;4.57;;;1.73;;
15635;SDS011;7917;50.818;6.972;2022-07-04T06:31:39;2.78;;;1.50;;
15635;SDS011;7917;50.818;6.972;2022-07-04T06:34:07;2.53;;;1.38;;
15635;SDS011;7917;50.818;6.972;2022-07-04T06:36:52;3.70;;;1.73;;
15635;SDS011;7917;50.818;6.972;2022-07-04T06:39:21;3.17;;;1.70;;
15635;SDS011;7917;50.818;6.972;2022-07-04T06:41:49;2.75;;;1.50;;
15635;SDS011;7917;50.818;6.972;2022-07-04T06:44:16;4.80;;;1.70;;
15635;SDS011;7917;50.818;6.972;2022-07-04T06:46:43;3.53;;;1.33;;
15635;SDS011;7917;50.818;6.972;2022-07-04T06:49:11;4.53;;;1.08;;
15635;SDS011;7917;50.818;6.972;2022-07-04T06:51:39;3.88;;;0.90;;
15635;SDS011;7917;50.818;6.972;2022-07-04T06:54:06;2.78;;;1.27;;
15635;SDS011;7917;50.818;6.972;2022-07-04T06:56:35;2.28;;;1.10;;
15635;SDS011;7917;50.818;6.972;2022-07-04T06:59:02;4.65;;;1.15;;
15635;SDS011;7917;50.818;6.972;2022-07-04T07:01:30;4.72;;;1.60;;
15635;SDS011;7917;50.818;6.972;2022-07-04T07:03:58;2.10;;;0.85;;
15635;SDS011;7917;50.818;6.972;2022-07-04T07:06:32;2.00;;;1.05;;
15635;SDS011;7917;50.818;6.972;2022-07-04T07:09:00;1.95;;;0.90;;
15635;SDS011;7917;50.818;6.972;2022-07-04T07:11:27;2.95;;;0.90;;
15635;SDS011;7917;50.818;6.972;2022-07-04T07:13:56;1.67;;;0.90;;
15635;SDS011;7917;50.818;6.972;2022-07-04T07:16:24;1.48;;;0.98;;
15635;SDS011;7917;50.818;6.972;2022-07-04T07:18:51;3.13;;;1.00;;
15635;SDS011;7917;50.818;6.972;2022-07-04T07:21:20;2.50;;;0.93;;
15635;SDS011;7917;50.818;6.972;2022-07-04T07:23:48;1.45;;;0.60;;
15635;SDS011;7917;50.818;6.972;2022-07-04T07:26:16;1.30;;;0.60;;
15635;SDS011;7917;50.818;6.972;2022-07-04T07:28:43;1.42;;;0.63;;
15635;SDS011;7917;50.818;6.972;2022-07-04T07:31:14;1.42;;;0.47;;
15635;SDS011;7917;50.818;6.972;2022-07-04T07:33:41;0.82;;;0.47;;
15635;SDS011;7917;50.818;6.972;2022-07-04T07:36:09;1.95;;;0.43;;
15635;SDS011;7917;50.818;6.972;2022-07-04T07:38:37;2.15;;;0.70;;
15635;SDS011;7917;50.818;6.972;2022-07-04T07:41:07;1.05;;;0.63;;
15635;SDS011;7917;50.818;6.972;2022-07-04T07:43:37;4.78;;;0.65;;
15635;SDS011;7917;50.818;6.972;2022-07-04T07:46:07;1.38;;;0.60;;
15635;SDS011;7917;50.818;6.972;2022-07-04T07:48:41;1.67;;;0.65;;
15635;SDS011;7917;50.818;6.972;2022-07-04T07:51:10;2.20;;;1.30;;
15635;SDS011;7917;50.818;6.972;2022-07-04T07:53:39;1.30;;;0.70;;
15635;SDS011;7917;50.818;6.972;2022-07-04T07:56:07;1.55;;;0.57;;
15635;SDS011;7917;50.818;6.972;2022-07-04T07:58:36;6.13;;;0.65;;
15635;SDS011;7917;50.818;6.972;2022-07-04T08:01:04;3.22;;;1.15;;
15635;SDS011;7917;50.818;6.972;2022-07-04T08:03:32;1.75;;;0.60;;
15635;SDS011;7917;50.818;6.972;2022-07-04T08:09:05;2.83;;;0.50;;
15635;SDS011;7917;50.818;6.972;2022-07-04T08:11:34;2.03;;;0.60;;
15635;SDS011;7917;50.818;6.972;2022-07-04T08:14:04;2.20;;;0.70;;
15635;SDS011;7917;50.818;6.972;2022-07-04T08:16:35;2.60;;;0.40;;
15635;SDS011;7917;50.818;6.972;2022-07-04T08:19:03;1.42;;;0.43;;
15635;SDS011;7917;50.818;6.972;2022-07-04T08:21:40;2.53;;;0.70;;
15635;SDS011;7917;50.818;6.972;2022-07-04T08:24:08;2.05;;;0.45;;
15635;SDS011;7917;50.818;6.972;2022-07-04T08:26:36;4.30;;;0.60;;
15635;SDS011;7917;50.818;6.972;2022-07-04T08:29:03;1.33;;;0.52;;
15635;SDS011;7917;50.818;6.972;2022-07-04T08:31:33;0.75;;;0.30;;
15635;SDS011;7917;50.818;6.972;2022-07-04T08:34:01;3.30;;;0.68;;
15635;SDS011;7917;50.818;6.972;2022-07-04T08:36:28;1.73;;;0.70;;
15635;SDS011;7917;50.818;6.972;2022-07-04T08:38:57;1.20;;;0.50;;
15635;SDS011;7917;50.818;6.972;2022-07-04T08:41:27;1.42;;;0.50;;
15635;SDS011;7917;50.818;6.972;2022-07-04T08:44:09;0.65;;;0.40;;
15635;SDS011;7917;50.818;6.972;2022-07-04T08:46:41;1.45;;;0.60;;
15635;SDS011;7917;50.818;6.972;2022-07-04T08:49:17;1.15;;;0.40;;
15635;SDS011;7917;50.818;6.972;2022-07-04T08:51:51;1.27;;;0.50;;
15635;SDS011;7917;50.818;6.972;2022-07-04T08:54:27;1.13;;;0.60;;
15635;SDS011;7917;50.818;6.972;2022-07-04T08:57:14;1.83;;;0.75;;
15635;SDS011;7917;50.818;6.972;2022-07-04T09:00:00;1.25;;;0.45;;
15635;SDS011;7917;50.818;6.972;2022-07-04T09:02:30;1.23;;;0.40;;
15635;SDS011;7917;50.818;6.972;2022-07-04T09:05:07;1.38;;;0.60;;
15635;SDS011;7917;50.818;6.972;2022-07-04T09:07:36;2.72;;;0.50;;
15635;SDS011;7917;50.818;6.972;2022-07-04T09:10:09;1.75;;;0.50;;
15635;SDS011;7917;50.818;6.972;2022-07-04T09:12:37;2.60;;;0.93;;
15635;SDS011;7917;50.818;6.972;2022-07-04T09:15:13;1.15;;;0.40;;
15635;SDS011;7917;50.818;6.972;2022-07-04T09:17:53;0.70;;;0.30;;
15635;SDS011;7917;50.818;6.972;2022-07-04T09:20:22;2.60;;;0.40;;
15635;SDS011;7917;50.818;6.972;2022-07-04T09:22:52;1.55;;;0.50;;
15635;SDS011;7917;50.818;6.972;2022-07-04T09:25:22;4.07;;;0.98;;
15635;SDS011;7917;50.818;6.972;2022-07-04T09:27:52;3.35;;;0.68;;
15635;SDS011;7917;50.818;6.972;2022-07-04T09:30:23;1.15;;;0.55;;
15635;SDS011;7917;50.818;6.972;2022-07-04T09:32:53;0.52;;;0.40;;
15635;SDS011;7917;50.818;6.972;2022-07-04T09:35:26;1.05;;;0.60;;
15635;SDS011;7917;50.818;6.972;2022-07-04T09:37:55;4.57;;;0.52;;
15635;SDS011;7917;50.818;6.972;2022-07-04T09:40:27;2.60;;;0.68;;
15635;SDS011;7917;50.818;6.972;2022-07-04T09:42:56;2.08;;;0.60;;
15635;SDS011;7917;50.818;6.972;2022-07-04T09:45:52;6.57;;;0.70;;
15635;SDS011;7917;50.818;6.972;2022-07-04T09:48:23;1.65;;;0.80;;
15635;SDS011;7917;50.818;6.972;2022-07-04T09:50:51;3.90;;;0.73;;
15635;SDS011;7917;50.818;6.972;2022-07-04T09:53:19;1.75;;;0.52;;
15635;SDS011;7917;50.818;6.972;2022-07-04T09:55:55;1.20;;;0.60;;
15635;SDS011;7917;50.818;6.972;2022-07-04T09:58:23;2.25;;;0.73;;
15635;SDS011;7917;50.818;6.972;2022-07-04T10:00:54;4.15;;;0.90;;
15635;SDS011;7917;50.818;6.972;2022-07-04T10:03:27;5.00;;;0.65;;
15635;SDS011;7917;50.818;6.972;2022-07-04T10:06:02;5.75;;;1.00;;
15635;SDS011;7917;50.818;6.972;2022-07-04T10:08:31;2.75;;;0.60;;
15635;SDS011;7917;50.818;6.972;2022-07-04T10:11:05;1.55;;;0.80;;
15635;SDS011;7917;50.818;6.972;2022-07-04T10:13:38;3.10;;;0.82;;
15635;SDS011;7917;50.818;6.972;2022-07-04T10:16:20;1.80;;;0.63;;
15635;SDS011;7917;50.818;6.972;2022-07-04T10:18:56;2.67;;;0.70;;
15635;SDS011;7917;50.818;6.972;2022-07-04T10:21:26;3.33;;;0.90;;
15635;SDS011;7917;50.818;6.972;2022-07-04T10:24:11;3.65;;;0.60;;
15635;SDS011;7917;50.818;6.972;2022-07-04T10:26:47;1.35;;;0.80;;
15635;SDS011;7917;50.818;6.972;2022-07-04T10:29:25;1.42;;;0.73;;
15635;SDS011;7917;50.818;6.972;2022-07-04T10:31:54;1.23;;;0.60;;
15635;SDS011;7917;50.818;6.972;2022-07-04T10:34:22;4.72;;;0.60;;
15635;SDS011;7917;50.818;6.972;2022-07-04T10:37:04;3.15;;;0.63;;
15635;SDS011;7917;50.818;6.972;2022-07-04T10:39:31;2.63;;;0.80;;
15635;SDS011;7917;50.818;6.972;2022-07-04T10:42:01;2.10;;;0.80;;
15635;SDS011;7917;50.818;6.972;2022-07-04T10:44:32;2.78;;;1.00;;
15635;SDS011;7917;50.818;6.972;2022-07-04T10:47:03;1.92;;;1.00;;
15635;SDS011;7917;50.818;6.972;2022-07-04T10:49:32;2.40;;;0.77;;
15635;SDS011;7917;50.818;6.972;2022-07-04T10:52:09;2.90;;;0.70;;
15635;SDS011;7917;50.818;6.972;2022-07-04T10:54:41;4.28;;;1.20;;
15635;SDS011;7917;50.818;6.972;2022-07-04T10:57:13;4.55;;;0.98;;
15635;SDS011;7917;50.818;6.972;2022-07-04T11:00:03;2.55;;;1.00;;
15635;SDS011;7917;50.818;6.972;2022-07-04T11:02:42;3.88;;;1.10;;
15635;SDS011;7917;50.818;6.972;2022-07-04T11:05:10;5.68;;;1.08;;
15635;SDS011;7917;50.818;6.972;2022-07-04T11:07:59;3.10;;;1.33;;
15635;SDS011;7917;50.818;6.972;2022-07-04T11:10:38;1.58;;;0.85;;
15635;SDS011;7917;50.818;6.972;2022-07-04T11:13:10;2.50;;;1.00;;
15635;SDS011;7917;50.818;6.972;2022-07-04T11:19:16;3.78;;;1.00;;
15635;SDS011;7917;50.818;6.972;2022-07-04T11:21:44;5.55;;;0.80;;
15635;SDS011;7917;50.818;6.972;2022-07-04T11:24:13;4.07;;;0.85;;
15635;SDS011;7917;50.818;6.972;2022-07-04T11:26:41;3.83;;;1.00;;
15635;SDS011;7917;50.818;6.972;2022-07-04T11:29:13;2.53;;;0.80;;
15635;SDS011;7917;50.818;6.972;2022-07-04T11:31:41;3.13;;;0.82;;
15635;SDS011;7917;50.818;6.972;2022-07-04T11:34:11;1.55;;;1.10;;
15635;SDS011;7917;50.818;6.972;2022-07-04T11:36:45;2.03;;;0.70;;
15635;SDS011;7917;50.818;6.972;2022-07-04T11:39:14;3.33;;;0.90;;
15635;SDS011;7917;50.818;6.972;2022-07-04T11:41:45;4.30;;;1.13;;
15635;SDS011;7917;50.818;6.972;2022-07-04T11:44:36;1.65;;;0.77;;
15635;SDS011;7917;50.818;6.972;2022-07-04T11:47:30;5.10;;;1.10;;
15635;SDS011;7917;50.818;6.972;2022-07-04T11:49:59;2.92;;;0.70;;
15635;SDS011;7917;50.818;6.972;2022-07-04T11:52:28;1.95;;;0.90;;
15635;SDS011;7917;50.818;6.972;2022-07-04T11:54:57;2.63;;;0.90;;
15635;SDS011;7917;50.818;6.972;2022-07-04T11:57:29;6.93;;;0.90;;
15635;SDS011;7917;50.818;6.972;2022-07-04T12:00:03;2.33;;;0.80;;
15635;SDS011;7917;50.818;6.972;2022-07-04T12:02:37;4.07;;;1.42;;
15635;SDS011;7917;50.818;6.972;2022-07-04T12:05:08;6.47;;;1.55;;
15635;SDS011;7917;50.818;6.972;2022-07-04T12:07:45;5.32;;;1.10;;
15635;SDS011;7917;50.818;6.972;2022-07-04T12:10:18;4.05;;;1.00;;
15635;SDS011;7917;50.818;6.972;2022-07-04T12:12:52;3.42;;;0.80;;
15635;SDS011;7917;50.818;6.972;2022-07-04T12:15:24;2.88;;;1.13;;
15635;SDS011;7917;50.818;6.972;2022-07-04T12:18:23;3.88;;;1.00;;
15635;SDS011;7917;50.818;6.972;2022-07-04T12:20:56;2.08;;;1.00;;
15635;SDS011;7917;50.818;6.972;2022-07-04T12:23:38;1.65;;;0.70;;
15635;SDS011;7917;50.818;6.972;2022-07-04T12:26:06;6.03;;;0.98;;
15635;SDS011;7917;50.818;6.972;2022-07-04T12:28:35;4.07;;;0.82;;
15635;SDS011;7917;50.818;6.972;2022-07-04T12:31:04;1.67;;;0.90;;
15635;SDS011;7917;50.818;6.972;2022-07-04T12:33:34;3.42;;;0.80;;
15635;SDS011;7917;50.818;6.972;2022-07-04T12:36:03;5.43;;;0.95;;
15635;SDS011;7917;50.818;6.972;2022-07-04T12:38:35;3.08;;;0.73;;
15635;SDS011;7917;50.818;6.972;2022-07-04T12:41:05;1.27;;;0.90;;
15635;SDS011;7917;50.818;6.972;2022-07-04T12:43:46;5.90;;;0.82;;
15635;SDS011;7917;50.818;6.972;2022-07-04T12:46:28;6.47;;;0.85;;
15635;SDS011;7917;50.818;6.972;2022-07-04T12:49:02;4.18;;;0.93;;
15635;SDS011;7917;50.818;6.972;2022-07-04T12:51:33;2.92;;;0.98;;
15635;SDS011;7917;50.818;6.972;2022-07-04T12:54:11;4.35;;;0.73;;
15635;SDS011;7917;50.818;6.972;2022-07-04T12:56:46;2.75;;;0.80;;
15635;SDS011;7917;50.818;6.972;2022-07-04T12:59:16;2.40;;;0.70;;
15635;SDS011;7917;50.818;6.972;2022-07-04T13:01:46;5.30;;;1.10;;
15635;SDS011;7917;50.818;6.972;2022-07-04T13:04:15;3.38;;;0.80;;
15635;SDS011;7917;50.818;6.972;2022-07-04T13:06:42;5.63;;;1.10;;
15635;SDS011;7917;50.818;6.972;2022-07-04T13:09:10;4.07;;;0.80;;
15635;SDS011;7917;50.818;6.972;2022-07-04T13:11:42;1.48;;;0.75;;
15635;SDS011;7917;50.818;6.972;2022-07-04T13:14:29;4.22;;;0.70;;
15635;SDS011;7917;50.818;6.972;2022-07-04T13:17:07;5.68;;;1.33;;
15635;SDS011;7917;50.818;6.972;2022-07-04T13:19:34;2.67;;;0.98;;
15635;SDS011;7917;50.818;6.972;2022-07-04T13:22:02;3.53;;;1.00;;
15635;SDS011;7917;50.818;6.972;2022-07-04T13:24:33;3.65;;;1.10;;
15635;SDS011;7917;50.818;6.972;2022-07-04T13:27:02;2.80;;;0.80;;
15635;SDS011;7917;50.818;6.972;2022-07-04T13:29:31;6.90;;;0.77;;
15635;SDS011;7917;50.818;6.972;2022-07-04T13:32:04;1.33;;;0.65;;
15635;SDS011;7917;50.818;6.972;2022-07-04T13:34:34;2.20;;;0.70;;
15635;SDS011;7917;50.818;6.972;2022-07-04T13:37:02;1.55;;;0.70;;
15635;SDS011;7917;50.818;6.972;2022-07-04T13:39:30;5.90;;;0.88;;
15635;SDS011;7917;50.818;6.972;2022-07-04T13:41:57;4.32;;;0.73;;
15635;SDS011;7917;50.818;6.972;2022-07-04T13:44:26;3.13;;;1.10;;
15635;SDS011;7917;50.818;6.972;2022-07-04T13:46:54;4.60;;;0.80;;
15635;SDS011;7917;50.818;6.972;2022-07-04T13:49:26;4.43;;;0.98;;
15635;SDS011;7917;50.818;6.972;2022-07-04T13:51:54;2.53;;;0.80;;
15635;SDS011;7917;50.818;6.972;2022-07-04T13:54:22;2.25;;;0.75;;
15635;SDS011;7917;50.818;6.972;2022-07-04T13:56:49;2.47;;;0.60;;
15635;SDS011;7917;50.818;6.972;2022-07-04T13:59:17;6.25;;;1.08;;
15635;SDS011;7917;50.818;6.972;2022-07-04T14:01:44;2.38;;;1.00;;
15635;SDS011;7917;50.818;6.972;2022-07-04T14:04:14;2.90;;;0.80;;
15635;SDS011;7917;50.818;6.972;2022-07-04T14:06:55;3.83;;;1.10;;
15635;SDS011;7917;50.818;6.972;2022-07-04T14:09:26;3.22;;;1.17;;
15635;SDS011;7917;50.818;6.972;2022-07-04T14:11:54;5.45;;;1.20;;
15635;SDS011;7917;50.818;6.972;2022-07-04T14:14:25;4.47;;;1.00;;
15635;SDS011;7917;50.818;6.972;2022-07-04T14:16:52;3.50;;;1.08;;
15635;SDS011;7917;50.818;6.972;2022-07-04T14:19:20;1.50;;;0.77;;
15635;SDS011;7917;50.818;6.972;2022-07-04T14:21:48;3.95;;;1.50;;
15635;SDS011;7917;50.818;6.972;2022-07-04T14:24:18;3.15;;;1.05;;
15635;SDS011;7917;50.818;6.972;2022-07-04T14:26:46;6.60;;;1.45;;
15635;SDS011;7917;50.818;6.972;2022-07-04T14:29:13;3.60;;;1.02;;
15635;SDS011;7917;50.818;6.972;2022-07-04T14:31:41;3.80;;;1.02;;
15635;SDS011;7917;50.818;6.972;2022-07-04T14:34:09;3.00;;;0.85;;
15635;SDS011;7917;50.818;6.972;2022-07-04T14:36:44;4.07;;;1.13;;
15635;SDS011;7917;50.818;6.972;2022-07-04T14:39:13;5.13;;;1.17;;
15635;SDS011;7917;50.818;6.972;2022-07-04T14:41:44;7.63;;;1.05;;
15635;SDS011;7917;50.818;6.972;2022-07-04T14:44:15;14.10;;;4.18;;
15635;SDS011;7917;50.818;6.972;2022-07-04T14:46:44;7.72;;;1.30;;
15635;SDS011;7917;50.818;6.972;2022-07-04T14:49:13;3.72;;;0.75;;
15635;SDS011;7917;50.818;6.972;2022-07-04T14:51:42;4.85;;;0.93;;
15635;SDS011;7917;50.818;6.972;2022-07-04T14:54:09;3.30;;;0.73;;
15635;SDS011;7917;50.818;6.972;2022-07-04T14:56:38;6.57;;;2.17;;
15635;SDS011;7917;50.818;6.972;2022-07-04T14:59:08;1.83;;;1.00;;
15635;SDS011;7917;50.818;6.972;2022-07-04T15:01:35;3.05;;;1.30;;
15635;SDS011;7917;50.818;6.972;2022-07-04T15:04:03;1.98;;;0.90;;
15635;SDS011;7917;50.818;6.972;2022-07-04T15:06:31;5.95;;;0.93;;
15635;SDS011;7917;50.818;6.972;2022-07-04T15:08:58;2.60;;;1.35;;
15635;SDS011;7917;50.818;6.972;2022-07-04T15:11:28;1.85;;;0.82;;
15635;SDS011;7917;50.818;6.972;2022-07-04T15:13:56;2.47;;;0.95;;
15635;SDS011;7917;50.818;6.972;2022-07-04T15:16:25;5.57;;;1.23;;
15635;SDS011;7917;50.818;6.972;2022-07-04T15:18:53;3.83;;;1.10;;
15635;SDS011;7917;50.818;6.972;2022-07-04T15:21:21;3.30;;;0.93;;
15635;SDS011;7917;50.818;6.972;2022-07-04T15:24:06;6.80;;;1.95;;